createdAt,value
2023-03-29T00:02:05.397Z,98670.59
2023-03-29T00:04:33.999Z,98664.34
2023-03-29T00:07:04.401Z,98661.63
2023-03-29T00:09:33.310Z,98670.69
2023-03-29T00:12:01.464Z,98668.59
2023-03-29T00:14:30.682Z,98667.59
2023-03-29T00:16:58.554Z,98654.44
2023-03-29T00:19:25.408Z,98647.38
2023-03-29T00:21:52.106Z,98654.31
2023-03-29T00:24:18.883Z,98657.03
2023-03-29T00:26:45.548Z,98654.25
2023-03-29T00:29:12.232Z,98635.84
2023-03-29T00:31:39.124Z,98631.53
2023-03-29T00:34:05.907Z,98636.72
2023-03-29T00:36:32.677Z,98633.09
2023-03-29T00:38:59.321Z,98633.97
2023-03-29T00:41:27.114Z,98628.75
2023-03-29T00:44:02.308Z,98636.03
2023-03-29T00:46:30.651Z,98621.91
2023-03-29T00:49:05.808Z,98638.81
2023-03-29T00:51:37.286Z,98631.81
2023-03-29T00:54:14.626Z,98643.25
2023-03-29T00:56:48.123Z,98631.72
2023-03-29T00:59:28.426Z,98620.25
2023-03-29T01:02:02.540Z,98626.59
2023-03-29T01:04:36.837Z,98617.03
2023-03-29T01:07:03.868Z,98616.97
2023-03-29T01:09:33.801Z,98613.78
2023-03-29T01:12:08.236Z,98610.50
2023-03-29T01:14:41.776Z,98610.47
2023-03-29T01:17:10.980Z,98613.69
2023-03-29T01:19:44.203Z,98610.22
2023-03-29T01:22:28.363Z,98599.72
2023-03-29T01:25:26.640Z,98596.94
2023-03-29T01:28:25.389Z,98597.81
2023-03-29T01:30:59.251Z,98583.59
2023-03-29T01:33:34.113Z,98577.53
2023-03-29T01:36:16.475Z,98573.22
2023-03-29T01:39:13.593Z,98565.13
2023-03-29T01:41:40.265Z,98563.47
2023-03-29T01:44:13.651Z,98564.47
2023-03-29T01:46:46.747Z,98541.72
2023-03-29T01:49:37.998Z,98535.44
2023-03-29T01:52:23.995Z,98543.53
2023-03-29T01:55:00.433Z,98554.22
2023-03-29T01:57:27.473Z,98549.53
2023-03-29T01:59:57.768Z,98541.63
2023-03-29T02:02:27.685Z,98560.13
2023-03-29T02:04:57.430Z,98558.53
2023-03-29T02:07:30.606Z,98552.31
2023-03-29T02:09:58.753Z,98549.63
2023-03-29T02:12:25.467Z,98545.16
2023-03-29T02:14:53.881Z,98547.03
2023-03-29T02:17:24.168Z,98543.59
2023-03-29T02:20:00.771Z,98540.28
2023-03-29T02:22:39.261Z,98543.75
2023-03-29T02:25:09.095Z,98543.81
2023-03-29T02:27:38.063Z,98549.84
2023-03-29T02:30:07.439Z,98542.34
2023-03-29T02:32:51.847Z,98531.59
2023-03-29T02:35:26.974Z,98538.44
2023-03-29T02:37:56.021Z,98541.03
2023-03-29T02:40:25.888Z,98540.19
2023-03-29T02:42:55.574Z,98533.91
2023-03-29T02:45:24.080Z,98525.13
2023-03-29T02:47:57.083Z,98535.59
2023-03-29T02:50:28.411Z,98538.41
2023-03-29T02:53:05.545Z,98536.72
2023-03-29T02:55:34.906Z,98523.38
2023-03-29T02:58:08.464Z,98541.88
2023-03-29T03:00:39.344Z,98539.63
2023-03-29T03:03:07.921Z,98537.03
2023-03-29T03:05:36.056Z,98539.69
2023-03-29T03:08:04.492Z,98530.03
2023-03-29T03:10:33.183Z,98530.91
2023-03-29T03:13:00.745Z,98531.75
2023-03-29T03:15:31.089Z,98530.03
2023-03-29T03:17:57.868Z,98526.41
2023-03-29T03:20:24.560Z,98529.88
2023-03-29T03:22:51.495Z,98539.44
2023-03-29T03:25:21.224Z,98528.88
2023-03-29T03:27:50.307Z,98534.09
2023-03-29T03:30:20.836Z,98525.41
2023-03-29T03:33:06.625Z,98527.28
2023-03-29T03:35:51.867Z,98525.56
2023-03-29T03:38:18.609Z,98526.44
2023-03-29T03:40:54.206Z,98533.59
2023-03-29T03:43:21.883Z,98539.94
2023-03-29T03:45:49.978Z,98529.41
2023-03-29T03:48:20.407Z,98527.66
2023-03-29T03:50:50.967Z,98522.41
2023-03-29T03:53:18.578Z,98523.25
2023-03-29T03:56:08.737Z,98522.41
2023-03-29T03:58:44.272Z,98517.06
2023-03-29T04:01:11.839Z,98520.59
2023-03-29T04:03:50.810Z,98517.19
2023-03-29T04:06:18.542Z,98521.59
2023-03-29T04:09:14.153Z,98521.75
2023-03-29T04:11:44.054Z,98520.09
2023-03-29T04:14:12.539Z,98520.97
2023-03-29T04:17:02.937Z,98512.16
2023-03-29T04:19:48.122Z,98513.84
2023-03-29T04:22:15.480Z,98508.53
2023-03-29T04:24:42.813Z,98502.16
2023-03-29T04:27:27.923Z,98499.56
2023-03-29T04:29:55.265Z,98494.00
2023-03-29T04:32:39.161Z,98496.97
2023-03-29T04:35:09.237Z,98493.88
2023-03-29T04:37:40.231Z,98496.31
2023-03-29T04:40:09.846Z,98507.88
2023-03-29T04:42:49.548Z,98501.88
2023-03-29T04:45:19.201Z,98500.91
2023-03-29T04:48:05.885Z,98490.16
2023-03-29T04:50:33.033Z,98490.09
2023-03-29T04:53:00.337Z,98499.22
2023-03-29T04:55:28.393Z,98504.41
2023-03-29T04:58:00.694Z,98512.44
2023-03-29T05:00:33.487Z,98509.56
2023-03-29T05:03:14.563Z,98509.31
2023-03-29T05:06:06.590Z,98511.81
2023-03-29T05:08:35.054Z,98504.78
2023-03-29T05:11:19.766Z,98513.56
2023-03-29T05:13:47.192Z,98516.22
2023-03-29T05:16:13.888Z,98516.31
2023-03-29T05:18:40.846Z,98515.38
2023-03-29T05:21:07.650Z,98517.81
2023-03-29T05:23:36.154Z,98514.69
2023-03-29T05:26:31.910Z,98510.84
2023-03-29T05:28:58.749Z,98515.28
2023-03-29T05:31:26.402Z,98518.63
2023-03-29T05:33:54.946Z,98516.69
2023-03-29T05:36:21.902Z,98509.63
2023-03-29T05:38:50.412Z,98506.09
2023-03-29T05:41:19.154Z,98500.72
2023-03-29T05:44:08.798Z,98515.56
2023-03-29T05:46:36.725Z,98519.13
2023-03-29T05:49:04.132Z,98534.25
2023-03-29T05:51:52.006Z,98525.94
2023-03-29T05:54:18.743Z,98533.75
2023-03-29T05:56:45.559Z,98526.72
2023-03-29T05:59:15.260Z,98523.13
2023-03-29T06:01:42.650Z,98518.56
2023-03-29T06:04:12.367Z,98521.91
2023-03-29T06:06:48.824Z,98515.63
2023-03-29T06:09:15.679Z,98525.50
2023-03-29T06:11:53.603Z,98536.75
2023-03-29T06:14:29.606Z,98539.88
2023-03-29T06:17:06.984Z,98539.69
2023-03-29T06:19:33.978Z,98534.22
2023-03-29T06:22:00.934Z,98531.56
2023-03-29T06:24:29.168Z,98526.25
2023-03-29T06:27:02.211Z,98515.13
2023-03-29T06:29:30.229Z,98526.69
2023-03-29T06:31:57.194Z,98530.00
2023-03-29T06:34:45.297Z,98527.22
2023-03-29T06:37:29.108Z,98528.94
2023-03-29T06:40:10.026Z,98531.28
2023-03-29T06:42:45.919Z,98530.25
2023-03-29T06:45:35.446Z,98532.22
2023-03-29T06:48:07.857Z,98536.34
2023-03-29T06:50:35.958Z,98535.47
2023-03-29T06:53:15.677Z,98539.22
2023-03-29T06:55:44.236Z,98537.16
2023-03-29T06:58:35.827Z,98536.19
2023-03-29T07:01:09.697Z,98538.03
2023-03-29T07:03:47.428Z,98535.31
2023-03-29T07:06:20.303Z,98531.66
2023-03-29T07:08:50.532Z,98540.31
2023-03-29T07:11:26.058Z,98545.66
2023-03-29T07:13:56.175Z,98550.06
2023-03-29T07:16:23.542Z,98552.53
2023-03-29T07:18:53.415Z,98547.13
2023-03-29T07:21:49.485Z,98545.59
2023-03-29T07:24:16.694Z,98546.88
2023-03-29T07:26:52.243Z,98550.28
2023-03-29T07:29:28.685Z,98556.91
2023-03-29T07:31:56.741Z,98548.44
2023-03-29T07:34:51.230Z,98547.28
2023-03-29T07:37:42.837Z,98555.78
2023-03-29T07:40:16.192Z,98553.63
2023-03-29T07:43:07.434Z,98546.91
2023-03-29T07:45:35.258Z,98544.19
2023-03-29T07:48:20.196Z,98547.00
2023-03-29T07:50:58.347Z,98552.72
2023-03-29T07:53:30.526Z,98549.66
2023-03-29T07:55:58.951Z,98544.06
2023-03-29T07:58:44.386Z,98529.41
2023-03-29T08:01:17.165Z,98524.31
2023-03-29T08:04:00.673Z,98519.28
2023-03-29T08:06:46.346Z,98511.06
2023-03-29T08:09:13.066Z,98502.81
2023-03-29T08:11:43.047Z,98505.44
2023-03-29T08:14:23.625Z,98502.94
2023-03-29T08:17:01.753Z,98504.53
2023-03-29T08:19:29.728Z,98507.88
2023-03-29T08:22:05.313Z,98506.28
2023-03-29T08:24:52.852Z,98520.97
2023-03-29T08:27:21.316Z,98511.06
2023-03-29T08:29:48.086Z,98518.16
2023-03-29T08:32:15.292Z,98507.75
2023-03-29T08:34:43.785Z,98505.81
2023-03-29T08:37:21.167Z,98491.16
2023-03-29T08:39:50.585Z,98490.47
2023-03-29T08:43:16.938Z,98488.09
2023-03-29T08:46:20.490Z,98490.25
2023-03-29T08:48:54.214Z,98494.19
2023-03-29T08:51:38.128Z,98485.28
2023-03-29T08:54:33.891Z,98481.25
2023-03-29T08:57:28.625Z,98476.81
2023-03-29T09:00:04.471Z,98475.81
2023-03-29T09:02:36.071Z,98483.50
2023-03-29T09:05:18.639Z,98475.19
2023-03-29T09:07:55.118Z,98467.34
2023-03-29T09:10:35.669Z,98468.56
2023-03-29T09:13:21.855Z,98465.06
2023-03-29T09:15:54.891Z,98473.53
2023-03-29T09:18:48.393Z,98475.22
2023-03-29T09:21:43.273Z,98482.13
2023-03-29T09:24:13.555Z,98483.34
2023-03-29T09:27:05.751Z,98480.78
2023-03-29T09:30:04.664Z,98490.97
2023-03-29T09:32:54.613Z,98490.00
2023-03-29T09:35:47.890Z,98492.13
2023-03-29T09:38:19.431Z,98490.56
2023-03-29T09:40:51.644Z,98472.88
2023-03-29T09:43:36.102Z,98465.72
2023-03-29T09:46:15.832Z,98456.41
2023-03-29T09:48:44.328Z,98435.34
2023-03-29T09:51:13.515Z,98426.69
2023-03-29T09:53:40.852Z,98429.34
2023-03-29T09:56:28.822Z,98423.25
2023-03-29T09:59:04.253Z,98431.19
2023-03-29T10:01:39.935Z,98430.31
2023-03-29T10:04:12.019Z,98434.63
2023-03-29T10:06:45.136Z,98436.09
2023-03-29T10:09:24.227Z,98424.16
2023-03-29T10:12:02.073Z,98432.25
2023-03-29T10:14:38.251Z,98418.41
2023-03-29T10:17:15.502Z,98421.66
2023-03-29T10:19:55.796Z,98417.69
2023-03-29T10:22:27.624Z,98423.06
2023-03-29T10:24:57.105Z,98422.22
2023-03-29T10:27:29.303Z,98416.41
2023-03-29T10:29:58.368Z,98404.25
2023-03-29T10:32:33.438Z,98401.50
2023-03-29T10:35:14.868Z,98404.94
2023-03-29T10:37:50.070Z,98415.28
2023-03-29T10:40:35.278Z,98426.81
2023-03-29T10:43:14.484Z,98428.94
2023-03-29T10:45:42.253Z,98422.31
2023-03-29T10:48:14.894Z,98434.81
2023-03-29T10:50:42.827Z,98441.84
2023-03-29T10:53:30.319Z,98445.31
2023-03-29T10:56:35.068Z,98450.81
2023-03-29T10:59:22.706Z,98444.50
2023-03-29T11:01:52.243Z,98451.50
2023-03-29T11:04:28.936Z,98447.22
2023-03-29T11:07:13.983Z,98442.47
2023-03-29T11:10:04.803Z,98440.75
2023-03-29T11:12:39.916Z,98440.97
2023-03-29T11:15:19.086Z,98434.63
2023-03-29T11:18:14.493Z,98437.91
2023-03-29T11:20:41.211Z,98439.78
2023-03-29T11:23:19.892Z,98449.13
2023-03-29T11:25:54.871Z,98439.88
2023-03-29T11:28:28.579Z,98442.28
2023-03-29T11:31:20.488Z,98432.41
2023-03-29T11:34:06.121Z,98444.25
2023-03-29T11:36:51.532Z,98450.63
2023-03-29T11:39:24.750Z,98459.09
2023-03-29T11:41:57.915Z,98453.09
2023-03-29T11:44:29.705Z,98453.38
2023-03-29T11:47:06.129Z,98465.03
2023-03-29T11:49:46.856Z,98464.59
2023-03-29T11:52:46.025Z,98468.38
2023-03-29T11:55:16.986Z,98468.72
2023-03-29T11:57:58.663Z,98473.94
2023-03-29T12:00:31.020Z,98456.28
2023-03-29T12:03:15.876Z,98453.59
2023-03-29T12:05:54.805Z,98452.78
2023-03-29T12:08:25.337Z,98452.38
2023-03-29T12:11:04.449Z,98448.63
2023-03-29T12:13:45.633Z,98456.19
2023-03-29T12:16:25.443Z,98460.38
2023-03-29T12:18:56.165Z,98464.66
2023-03-29T12:21:26.402Z,98479.16
2023-03-29T12:23:54.163Z,98480.50
2023-03-29T12:26:42.496Z,98486.00
2023-03-29T12:29:22.201Z,98482.50
2023-03-29T12:32:27.501Z,98485.44
2023-03-29T12:35:34.193Z,98465.78
2023-03-29T12:38:22.888Z,98470.22
2023-03-29T12:41:23.414Z,98470.84
2023-03-29T12:44:14.366Z,98463.22
2023-03-29T12:47:01.424Z,98460.63
2023-03-29T12:49:34.451Z,98447.53
2023-03-29T12:52:06.060Z,98445.00
2023-03-29T12:54:33.547Z,98431.34
2023-03-29T12:57:21.121Z,98431.94
2023-03-29T12:59:49.704Z,98438.50
2023-03-29T13:02:17.591Z,98422.09
2023-03-29T13:04:50.749Z,98411.91
2023-03-29T13:07:23.336Z,98424.56
2023-03-29T13:09:52.826Z,98420.97
2023-03-29T13:12:34.614Z,98413.06
2023-03-29T13:15:05.611Z,98403.00
2023-03-29T13:18:12.357Z,98398.94
2023-03-29T13:21:04.682Z,98391.34
2023-03-29T13:23:57.975Z,98386.19
2023-03-29T13:26:54.338Z,98384.16
2023-03-29T13:29:29.698Z,98379.13
2023-03-29T13:32:18.919Z,98387.66
2023-03-29T13:35:02.350Z,98381.91
2023-03-29T13:37:52.057Z,98378.03
2023-03-29T13:40:30.515Z,98369.66
2023-03-29T13:43:00.501Z,98364.38
2023-03-29T13:45:32.348Z,98360.53
2023-03-29T13:48:24.253Z,98361.00
2023-03-29T13:51:14.349Z,98350.56
2023-03-29T13:53:47.762Z,98355.06
2023-03-29T13:56:19.967Z,98351.88
2023-03-29T13:58:53.905Z,98342.38
2023-03-29T14:01:55.181Z,98336.38
2023-03-29T14:04:25.575Z,98320.72
2023-03-29T14:06:56.000Z,98310.09
2023-03-29T14:09:28.341Z,98307.75
2023-03-29T14:11:55.114Z,98306.81
2023-03-29T14:14:25.730Z,98308.09
2023-03-29T14:16:55.368Z,98296.75
2023-03-29T14:19:27.488Z,98294.41
2023-03-29T14:21:54.217Z,98291.88
2023-03-29T14:24:26.006Z,98298.84
2023-03-29T14:26:53.945Z,98295.41
2023-03-29T14:29:21.896Z,98283.53
2023-03-29T14:31:50.117Z,98284.97
2023-03-29T14:34:18.606Z,98281.06
2023-03-29T14:36:48.789Z,98282.88
2023-03-29T14:39:18.573Z,98284.69
2023-03-29T14:41:53.914Z,98284.00
2023-03-29T14:44:23.745Z,98278.94
2023-03-29T14:46:50.847Z,98277.69
2023-03-29T14:49:20.693Z,98280.31
2023-03-29T14:51:49.211Z,98282.34
2023-03-29T14:54:25.185Z,98288.09
2023-03-29T14:56:52.976Z,98291.63
2023-03-29T14:59:54.144Z,98287.16
2023-03-29T15:02:32.647Z,98284.22
2023-03-29T15:05:07.480Z,98273.38
2023-03-29T15:07:36.441Z,98265.41
2023-03-29T15:10:06.234Z,98270.91
2023-03-29T15:12:33.790Z,98271.63
2023-03-29T15:15:01.344Z,98264.88
2023-03-29T15:17:50.196Z,98254.47
2023-03-29T15:20:31.695Z,98252.47
2023-03-29T15:23:09.480Z,98250.34
2023-03-29T15:25:54.732Z,98246.78
2023-03-29T15:28:28.166Z,98241.84
2023-03-29T15:31:17.598Z,98254.91
2023-03-29T15:33:44.725Z,98248.41
2023-03-29T15:36:13.958Z,98251.03
2023-03-29T15:38:44.478Z,98244.69
2023-03-29T15:41:14.019Z,98237.69
2023-03-29T15:43:41.375Z,98233.81
2023-03-29T15:46:10.398Z,98213.38
2023-03-29T15:48:37.333Z,98223.09
2023-03-29T15:51:06.499Z,98202.94
2023-03-29T15:53:33.710Z,98212.50
2023-03-29T15:56:02.124Z,98208.41
2023-03-29T15:58:31.635Z,98205.72
2023-03-29T16:01:36.656Z,98198.25
2023-03-29T16:04:04.439Z,98193.81
2023-03-29T16:06:32.230Z,98185.28
2023-03-29T16:08:59.125Z,98179.59
2023-03-29T16:11:26.990Z,98181.28
2023-03-29T16:13:55.683Z,98174.19
2023-03-29T16:16:22.689Z,98165.00
2023-03-29T16:18:49.516Z,98151.84
2023-03-29T16:21:18.737Z,98147.38
2023-03-29T16:23:47.006Z,98150.44
2023-03-29T16:26:17.106Z,98149.22
2023-03-29T16:28:43.932Z,98156.19
2023-03-29T16:31:11.925Z,98160.91
2023-03-29T16:33:40.536Z,98154.13
2023-03-29T16:36:08.133Z,98143.31
2023-03-29T16:38:34.889Z,98138.91
2023-03-29T16:41:02.482Z,98134.31
2023-03-29T16:43:29.119Z,98129.31
2023-03-29T16:45:56.822Z,98146.19
2023-03-29T16:48:23.815Z,98136.91
2023-03-29T16:50:50.711Z,98129.25
2023-03-29T16:53:21.327Z,98109.63
2023-03-29T16:55:49.520Z,98119.16
2023-03-29T16:58:16.202Z,98121.00
2023-03-29T17:00:44.960Z,98117.28
2023-03-29T17:03:13.151Z,98112.53
2023-03-29T17:05:41.644Z,98109.53
2023-03-29T17:08:10.045Z,98105.50
2023-03-29T17:10:39.856Z,98101.81
2023-03-29T17:13:06.751Z,98123.84
2023-03-29T17:15:34.279Z,98126.31
2023-03-29T17:18:02.457Z,98124.03
2023-03-29T17:20:29.236Z,98128.50
2023-03-29T17:22:56.098Z,98138.97
2023-03-29T17:25:23.552Z,98135.44
2023-03-29T17:27:51.014Z,98139.94
2023-03-29T17:30:18.033Z,98133.91
2023-03-29T17:32:45.752Z,98135.38
2023-03-29T17:35:13.263Z,98138.31
2023-03-29T17:37:40.084Z,98144.78
2023-03-29T17:40:14.080Z,98141.94
2023-03-29T17:42:41.882Z,98139.03
2023-03-29T17:45:10.275Z,98135.28
2023-03-29T17:47:38.212Z,98134.41
2023-03-29T17:50:06.772Z,98130.41
2023-03-29T17:52:33.719Z,98135.44
2023-03-29T17:55:00.789Z,98131.50
2023-03-29T17:57:29.831Z,98130.47
2023-03-29T17:59:56.472Z,98124.22
2023-03-29T18:02:24.482Z,98123.63
2023-03-29T18:04:51.690Z,98122.94
2023-03-29T18:07:18.560Z,98119.50
2023-03-29T18:09:45.378Z,98115.72
2023-03-29T18:12:12.429Z,98121.72
2023-03-29T18:14:39.073Z,98118.84
2023-03-29T18:17:05.932Z,98107.25
2023-03-29T18:19:32.612Z,98109.16
2023-03-29T18:21:59.341Z,98102.25
2023-03-29T18:24:26.117Z,98109.16
2023-03-29T18:26:52.958Z,98103.81
2023-03-29T18:29:19.680Z,98106.25
2023-03-29T18:31:46.477Z,98110.38
2023-03-29T18:34:13.159Z,98107.75
2023-03-29T18:36:39.947Z,98100.84
2023-03-29T18:39:06.727Z,98094.97
2023-03-29T18:41:34.520Z,98088.06
2023-03-29T18:44:01.530Z,98089.16
2023-03-29T18:46:31.077Z,98078.50
2023-03-29T18:49:01.103Z,98084.75
2023-03-29T18:51:28.292Z,98077.09
2023-03-29T18:53:55.997Z,98077.84
2023-03-29T18:56:22.830Z,98070.41
2023-03-29T18:58:49.641Z,98066.81
2023-03-29T19:01:16.379Z,98075.16
2023-03-29T19:03:43.488Z,98064.91
2023-03-29T19:06:11.762Z,98070.50
2023-03-29T19:08:42.070Z,98068.78
2023-03-29T19:11:14.263Z,98074.28
2023-03-29T19:13:41.562Z,98067.22
2023-03-29T19:16:08.606Z,98070.41
2023-03-29T19:18:35.750Z,98066.16
2023-03-29T19:21:02.497Z,98058.66
2023-03-29T19:23:29.250Z,98067.22
2023-03-29T19:25:58.294Z,98067.22
2023-03-29T19:28:25.911Z,98065.97
2023-03-29T19:30:52.895Z,98061.16
2023-03-29T19:33:20.002Z,98054.78
2023-03-29T19:35:49.214Z,98059.06
2023-03-29T19:38:16.040Z,98061.00
2023-03-29T19:40:47.130Z,98061.63
2023-03-29T19:43:16.802Z,98047.13
2023-03-29T19:45:44.856Z,98047.91
2023-03-29T19:48:21.153Z,98046.97
2023-03-29T19:50:48.792Z,98040.59
2023-03-29T19:53:15.672Z,98043.41
2023-03-29T19:55:44.194Z,98039.50
2023-03-29T19:58:10.974Z,98034.94
2023-03-29T20:00:38.915Z,98039.19
2023-03-29T20:03:09.302Z,98035.59
2023-03-29T20:05:38.338Z,98025.09
2023-03-29T20:08:05.331Z,98024.66
2023-03-29T20:10:32.940Z,98025.38
2023-03-29T20:12:59.593Z,98022.25
2023-03-29T20:15:26.482Z,98025.41
2023-03-29T20:17:57.039Z,98024.03
2023-03-29T20:20:26.659Z,98012.44
2023-03-29T20:23:04.505Z,98016.28
2023-03-29T20:25:32.567Z,98014.78
2023-03-29T20:27:59.617Z,98018.22
2023-03-29T20:30:26.629Z,98011.78
2023-03-29T20:32:53.406Z,98012.88
2023-03-29T20:35:20.155Z,98002.78
2023-03-29T20:37:46.878Z,98008.50
2023-03-29T20:40:15.521Z,98003.16
2023-03-29T20:42:42.257Z,98008.13
2023-03-29T20:45:18.413Z,98007.09
2023-03-29T20:47:50.357Z,98001.53
2023-03-29T20:50:18.782Z,98002.53
2023-03-29T20:52:45.497Z,97994.88
2023-03-29T20:55:12.944Z,98002.16
2023-03-29T20:57:42.116Z,98000.38
2023-03-29T21:00:11.980Z,98000.66
2023-03-29T21:02:39.263Z,98002.63
2023-03-29T21:05:06.532Z,98006.25
2023-03-29T21:07:33.223Z,98002.16
2023-03-29T21:10:01.021Z,98007.00
2023-03-29T21:12:27.709Z,98011.59
2023-03-29T21:14:55.088Z,98002.88
2023-03-29T21:17:22.030Z,98008.59
2023-03-29T21:19:48.957Z,98006.81
2023-03-29T21:22:15.666Z,98013.38
2023-03-29T21:24:42.277Z,98010.78
2023-03-29T21:27:09.045Z,98009.63
2023-03-29T21:29:35.703Z,98015.50
2023-03-29T21:32:02.490Z,98013.84
2023-03-29T21:34:29.138Z,98010.31
2023-03-29T21:36:56.000Z,98013.91
2023-03-29T21:39:25.489Z,98019.03
2023-03-29T21:41:52.839Z,98038.09
2023-03-29T21:44:20.341Z,98024.72
2023-03-29T21:46:47.017Z,98015.03
2023-03-29T21:49:13.793Z,98015.75
2023-03-29T21:51:40.545Z,98017.00
2023-03-29T21:54:07.204Z,98027.66
2023-03-29T21:56:33.887Z,98021.78
2023-03-29T21:59:00.655Z,98014.63
2023-03-29T22:01:27.363Z,98026.50
2023-03-29T22:03:54.032Z,98038.56
2023-03-29T22:06:23.762Z,98041.84
2023-03-29T22:08:52.993Z,98058.22
2023-03-29T22:11:20.125Z,98058.34
2023-03-29T22:13:46.797Z,98052.78
2023-03-29T22:16:14.120Z,98050.94
2023-03-29T22:18:44.173Z,98056.84
2023-03-29T22:21:17.350Z,98061.94
2023-03-29T22:23:49.837Z,98066.03
2023-03-29T22:26:19.019Z,98057.53
2023-03-29T22:28:46.045Z,98033.69
2023-03-29T22:31:17.997Z,98035.28
2023-03-29T22:33:45.227Z,98037.22
2023-03-29T22:36:27.275Z,98029.13
2023-03-29T22:38:54.533Z,98011.44
2023-03-29T22:41:23.691Z,97998.16
2023-03-29T22:43:52.479Z,97989.69
2023-03-29T22:46:19.877Z,97995.19
2023-03-29T22:48:46.832Z,97994.09
2023-03-29T22:51:14.612Z,97987.59
2023-03-29T22:53:41.406Z,97992.25
2023-03-29T22:56:09.141Z,97988.75
2023-03-29T22:58:37.031Z,97996.69
2023-03-29T23:01:05.236Z,97993.91
2023-03-29T23:03:32.299Z,97977.63
2023-03-29T23:06:02.318Z,97957.50
2023-03-29T23:08:31.127Z,97942.41
2023-03-29T23:10:58.195Z,97936.31
2023-03-29T23:13:28.673Z,97935.91
2023-03-29T23:15:59.907Z,97951.59
2023-03-29T23:18:28.655Z,97948.22
2023-03-29T23:20:57.312Z,97940.91
2023-03-29T23:23:26.723Z,97938.88
2023-03-29T23:25:54.429Z,97939.88
2023-03-29T23:28:24.980Z,97940.38
2023-03-29T23:31:03.569Z,97942.78
2023-03-29T23:33:35.953Z,97939.19
2023-03-29T23:36:05.646Z,97929.44
2023-03-29T23:38:36.830Z,97917.78
2023-03-29T23:41:08.286Z,97927.72
2023-03-29T23:43:37.166Z,97951.56
2023-03-29T23:46:07.228Z,97948.31
2023-03-29T23:48:34.562Z,97949.44
2023-03-29T23:51:02.586Z,97942.84
2023-03-29T23:53:30.533Z,97930.34
2023-03-29T23:56:02.972Z,97930.09
2023-03-29T23:58:31.685Z,97931.03
